首页
METAR-TAF:

METAR-TAF

机场 :

Army Air Corps Middle Wallop

Middle Wallop, 英格兰

纬度: 51-09N, 经度: 001-34W, 海拔: 91米

当前天气观测

该预报发布于1小时和7分钟前的05:50 UTC
风速4节,风向西北
温度 0°C
湿度 100%
气压 1009 hPa
能見度: 5000

METAR: EGVP 170550Z AUTO 32004KT 5000 // FEW043/// OVC160/// M00/M00 Q1009

时间: 06:57 (06:57 UTC)


TAF: 丢失

超过4000个机场的气象观测和天气预报(METAR&TAF报告)。

可查询的气象台以黄色和红色小点在地图上表示。

将鼠标移到小点上方,可查看气象台名称。

然后点击查看天气观测和预报。

如需切换地图:点击带黑十字的绿色按钮放大地图;点击带横线的绿色按钮缩小地图;或者点击绿色箭头查看邻近地区的地图。


METAR-TAF: